createdAt,value
2022-10-20T00:41:56.463Z,11.70
2022-10-20T00:44:48.006Z,11.60
2022-10-20T00:47:20.550Z,10.68
2022-10-20T00:49:49.453Z,11.03
2022-10-20T00:52:21.808Z,11.40
2022-10-20T00:54:50.579Z,10.13
2022-10-20T00:57:20.482Z,10.88
2022-10-20T00:59:48.826Z,10.93
2022-10-20T01:02:17.311Z,9.83
2022-10-20T01:04:46.023Z,10.40
2022-10-20T01:07:14.126Z,10.77
2022-10-20T01:09:42.446Z,10.60
2022-10-20T01:12:23.402Z,11.10
2022-10-20T01:14:59.105Z,10.57
2022-10-20T01:17:36.536Z,10.13
2022-10-20T01:20:35.650Z,10.30
2022-10-20T01:23:31.781Z,10.37
2022-10-20T01:26:22.639Z,10.57
2022-10-20T01:28:56.512Z,10.40
2022-10-20T01:31:30.992Z,10.60
2022-10-20T01:34:07.984Z,10.27
2022-10-20T01:36:40.901Z,10.03
2022-10-20T01:39:13.609Z,9.43
2022-10-20T01:41:47.253Z,10.00
2022-10-20T01:44:20.759Z,10.07
2022-10-20T01:46:50.001Z,10.40
2022-10-20T01:49:18.452Z,10.23
2022-10-20T01:51:49.503Z,8.97
2022-10-20T01:54:22.900Z,10.20
2022-10-20T01:57:03.648Z,9.77
2022-10-20T01:59:48.511Z,9.73
2022-10-20T02:02:35.990Z,10.33
2022-10-20T02:05:19.719Z,10.60
2022-10-20T02:07:47.976Z,10.13
2022-10-20T02:10:21.294Z,9.77
2022-10-20T02:12:54.130Z,9.83
2022-10-20T02:15:26.907Z,11.27
2022-10-20T02:17:59.982Z,9.60
2022-10-20T02:20:30.774Z,9.60
2022-10-20T02:23:00.484Z,9.90
2022-10-20T02:25:30.639Z,10.60
2022-10-20T02:30:35.982Z,9.73
2022-10-20T02:33:04.926Z,9.93
2022-10-20T02:35:34.182Z,9.70
2022-10-20T02:38:02.934Z,9.73
2022-10-20T02:40:31.325Z,9.53
2022-10-20T02:42:59.524Z,10.00
2022-10-20T02:45:27.670Z,9.80
2022-10-20T02:47:57.413Z,9.10
2022-10-20T02:50:25.647Z,10.30
2022-10-20T02:52:53.738Z,9.47
2022-10-20T02:55:21.920Z,10.10
2022-10-20T02:57:51.168Z,9.50
2022-10-20T03:00:19.498Z,9.40
2022-10-20T03:02:48.116Z,9.70
2022-10-20T03:05:18.839Z,9.90
2022-10-20T03:07:46.978Z,9.40
2022-10-20T03:10:15.174Z,10.27
2022-10-20T03:12:43.331Z,10.03
2022-10-20T03:15:12.538Z,10.90
2022-10-20T03:17:40.707Z,11.40
2022-10-20T03:20:09.909Z,11.40
2022-10-20T03:22:39.428Z,11.50
2022-10-20T03:25:08.209Z,12.70
2022-10-20T03:27:36.663Z,12.00
2022-10-20T03:30:06.221Z,12.73
2022-10-20T03:32:34.807Z,12.33
2022-10-20T03:35:03.264Z,12.47
2022-10-20T03:37:31.524Z,12.30
2022-10-20T03:40:01.039Z,12.53
2022-10-20T03:42:29.233Z,11.87
2022-10-20T03:44:57.376Z,12.37
2022-10-20T03:47:25.709Z,11.80
2022-10-20T03:49:53.975Z,11.53
2022-10-20T03:52:22.161Z,11.60
2022-10-20T03:54:50.531Z,11.70
2022-10-20T03:57:20.454Z,11.40
2022-10-20T03:59:48.662Z,11.43
2022-10-20T04:02:35.790Z,12.47
2022-10-20T04:05:05.064Z,10.00
2022-10-20T04:07:33.192Z,11.43
2022-10-20T04:10:02.277Z,11.77
2022-10-20T04:12:31.908Z,11.83
2022-10-20T04:15:00.107Z,11.27
2022-10-20T04:17:28.778Z,11.63
2022-10-20T04:19:56.928Z,11.83
2022-10-20T04:22:25.149Z,10.88
2022-10-20T04:24:53.288Z,10.93
2022-10-20T04:27:21.453Z,11.20
2022-10-20T04:29:50.970Z,11.30
2022-10-20T04:32:19.125Z,11.50
2022-10-20T04:34:47.741Z,10.70
2022-10-20T04:37:16.004Z,12.33
2022-10-20T04:39:44.174Z,10.70
2022-10-20T04:42:14.596Z,11.50
2022-10-20T04:44:42.804Z,11.03
2022-10-20T04:47:12.923Z,11.80
2022-10-20T04:49:42.319Z,11.37
2022-10-20T04:52:10.623Z,11.32
2022-10-20T04:54:38.910Z,12.73
2022-10-20T04:57:07.094Z,12.03
2022-10-20T04:59:35.271Z,11.53
2022-10-20T05:02:03.565Z,11.70
2022-10-20T05:04:33.354Z,11.83
2022-10-20T05:07:01.825Z,12.60
2022-10-20T05:09:31.437Z,11.83
2022-10-20T05:12:00.004Z,11.70
2022-10-20T05:14:28.353Z,12.37
2022-10-20T05:16:56.872Z,13.17
2022-10-20T05:19:25.292Z,13.17
2022-10-20T05:21:54.841Z,11.87
2022-10-20T05:24:26.559Z,13.53
2022-10-20T05:26:57.422Z,13.13
2022-10-20T05:29:25.789Z,12.90
2022-10-20T05:31:53.981Z,13.50
2022-10-20T05:34:22.232Z,14.23
2022-10-20T05:36:50.476Z,14.43
2022-10-20T05:39:19.981Z,13.40
2022-10-20T05:41:48.167Z,13.90
2022-10-20T05:44:16.385Z,14.43
2022-10-20T05:46:45.530Z,14.10
2022-10-20T05:49:15.902Z,14.20
2022-10-20T05:51:44.524Z,14.00
2022-10-20T05:54:14.368Z,14.40
2022-10-20T05:56:43.889Z,14.47
2022-10-20T05:59:12.603Z,16.23
2022-10-20T06:01:48.242Z,15.60
2022-10-20T06:04:18.016Z,14.73
2022-10-20T06:06:49.119Z,14.83
2022-10-20T06:09:18.030Z,15.97
2022-10-20T06:11:47.649Z,14.70
2022-10-20T06:14:15.889Z,15.53
2022-10-20T06:16:44.352Z,15.80
2022-10-20T06:19:12.497Z,14.30
2022-10-20T06:21:40.704Z,15.60
2022-10-20T06:24:08.949Z,16.30
2022-10-20T06:26:37.688Z,16.08
2022-10-20T06:29:08.962Z,15.10
2022-10-20T06:31:39.775Z,15.60
2022-10-20T06:34:09.346Z,17.53
2022-10-20T06:36:38.235Z,16.10
2022-10-20T06:39:08.364Z,15.80
2022-10-20T06:41:37.021Z,16.63
2022-10-20T06:44:07.351Z,16.57
2022-10-20T06:46:37.047Z,17.40
2022-10-20T06:49:06.718Z,16.03
2022-10-20T06:51:36.228Z,17.03
2022-10-20T06:54:05.075Z,17.00
2022-10-20T06:56:35.301Z,16.10
2022-10-20T06:59:04.335Z,16.60
2022-10-20T07:01:39.598Z,16.70
2022-10-20T07:04:11.171Z,16.50
2022-10-20T07:06:42.338Z,16.80
2022-10-20T07:09:15.505Z,16.00
2022-10-20T07:11:46.593Z,16.77
2022-10-20T07:14:15.190Z,15.80
2022-10-20T07:16:44.802Z,15.70
2022-10-20T07:19:12.957Z,15.73
2022-10-20T07:21:45.286Z,16.87
2022-10-20T07:24:14.011Z,15.43
2022-10-20T07:26:42.780Z,15.43
2022-10-20T07:29:11.779Z,16.10
2022-10-20T07:31:41.674Z,14.90
2022-10-20T07:34:25.198Z,14.80
2022-10-20T07:36:55.089Z,14.17
2022-10-20T07:39:23.293Z,15.30
2022-10-20T07:41:52.053Z,15.30
2022-10-20T07:44:20.335Z,14.27
2022-10-20T07:46:48.613Z,15.70
2022-10-20T07:52:07.022Z,15.67
2022-10-20T07:54:35.191Z,15.10
2022-10-20T07:57:03.386Z,14.00
2022-10-20T07:59:31.591Z,14.63
2022-10-20T08:02:00.352Z,14.33
2022-10-20T08:04:31.688Z,15.50
2022-10-20T08:07:00.435Z,15.33
2022-10-20T08:09:28.860Z,15.10
2022-10-20T08:11:57.129Z,15.20
2022-10-20T08:14:27.668Z,13.77
2022-10-20T08:16:59.200Z,16.17
2022-10-20T08:19:31.746Z,14.43
2022-10-20T08:21:59.892Z,14.67
2022-10-20T08:24:28.025Z,14.50
2022-10-20T08:26:56.435Z,14.40
2022-10-20T08:29:24.908Z,15.27
2022-10-20T08:31:53.163Z,14.27
2022-10-20T08:34:21.409Z,14.30
2022-10-20T08:36:50.907Z,15.40
2022-10-20T08:39:19.671Z,14.33
2022-10-20T08:44:40.999Z,14.77
2022-10-20T08:47:19.328Z,15.03
2022-10-20T08:49:47.833Z,14.83
2022-10-20T08:52:19.399Z,14.77
2022-10-20T08:54:49.531Z,14.73
2022-10-20T08:57:23.888Z,14.03
2022-10-20T08:59:54.812Z,14.33
2022-10-20T09:02:24.060Z,14.50
2022-10-20T09:04:56.517Z,14.17
2022-10-20T09:07:30.297Z,14.77
2022-10-20T09:10:08.596Z,14.13
2022-10-20T09:12:39.290Z,15.03
2022-10-20T09:15:10.473Z,14.23
2022-10-20T09:17:39.000Z,14.80
2022-10-20T09:20:16.913Z,13.98
2022-10-20T09:22:49.435Z,13.30
2022-10-20T09:25:20.549Z,13.67
2022-10-20T09:27:49.282Z,13.30
2022-10-20T09:30:20.838Z,14.52
2022-10-20T09:32:49.972Z,14.13
2022-10-20T09:35:27.178Z,14.33
2022-10-20T09:38:02.507Z,13.90
2022-10-20T09:40:31.584Z,14.33
2022-10-20T09:43:03.428Z,13.80
2022-10-20T09:45:33.599Z,14.10
2022-10-20T09:48:06.728Z,14.40
2022-10-20T09:50:41.475Z,13.27
2022-10-20T09:53:20.141Z,13.13
2022-10-20T09:55:50.338Z,14.30
2022-10-20T09:58:24.055Z,12.73
2022-10-20T10:01:02.583Z,12.97
2022-10-20T10:03:40.619Z,13.10
2022-10-20T10:06:27.482Z,13.13
2022-10-20T10:08:59.610Z,13.97
2022-10-20T10:11:34.116Z,14.57
2022-10-20T10:14:03.276Z,14.00
2022-10-20T10:16:41.930Z,12.90
2022-10-20T10:19:20.419Z,13.67
2022-10-20T10:21:54.587Z,14.03
2022-10-20T10:24:40.920Z,14.07
2022-10-20T10:27:22.206Z,14.03
2022-10-20T10:29:50.624Z,14.03
2022-10-20T10:32:20.058Z,15.00
2022-10-20T10:35:08.943Z,15.40
2022-10-20T10:37:39.501Z,14.13
2022-10-20T10:40:16.164Z,16.60
2022-10-20T10:43:22.181Z,14.77
2022-10-20T10:45:55.099Z,12.80
2022-10-20T10:48:47.691Z,15.27
2022-10-20T10:51:26.327Z,14.50
2022-10-20T10:54:11.914Z,14.77
2022-10-20T10:56:47.088Z,14.60
2022-10-20T10:59:22.667Z,15.57
2022-10-20T11:02:19.709Z,15.00
2022-10-20T11:05:17.887Z,14.00
2022-10-20T11:07:53.939Z,12.20
2022-10-20T11:10:29.196Z,11.90
2022-10-20T11:13:07.913Z,11.97
2022-10-20T11:15:49.997Z,11.67
2022-10-20T11:18:36.747Z,12.13
2022-10-20T11:21:26.186Z,11.77
2022-10-20T11:24:09.697Z,11.37
2022-10-20T11:26:40.496Z,12.43
2022-10-20T11:29:17.512Z,11.90
2022-10-20T11:31:54.510Z,11.47
2022-10-20T11:34:29.643Z,13.03
2022-10-20T11:37:06.033Z,12.50
2022-10-20T11:39:44.062Z,11.35
2022-10-20T11:42:24.774Z,12.00
2022-10-20T11:44:56.418Z,11.90
2022-10-20T11:47:31.578Z,13.00
2022-10-20T11:50:00.301Z,12.47
2022-10-20T11:52:45.828Z,12.43
2022-10-20T11:55:30.365Z,13.20
2022-10-20T11:58:16.808Z,13.00
2022-10-20T12:01:01.330Z,12.40
2022-10-20T12:04:03.544Z,12.90
2022-10-20T12:06:56.659Z,13.67
2022-10-20T12:09:47.497Z,13.77
2022-10-20T12:12:20.756Z,13.00
2022-10-20T12:14:56.217Z,13.30
2022-10-20T12:17:31.862Z,14.10
2022-10-20T12:20:37.597Z,12.77
2022-10-20T12:23:06.017Z,12.70
2022-10-20T12:25:41.094Z,13.67
2022-10-20T12:28:48.873Z,13.27
2022-10-20T12:31:17.098Z,14.30
2022-10-20T12:34:03.783Z,14.47
2022-10-20T12:36:37.647Z,13.13
2022-10-20T12:39:24.831Z,13.97
2022-10-20T12:42:01.225Z,14.67
2022-10-20T12:44:32.354Z,14.20
2022-10-20T12:47:05.804Z,15.23
2022-10-20T12:49:37.590Z,13.73
2022-10-20T12:52:08.409Z,16.07
2022-10-20T12:54:39.570Z,14.40
2022-10-20T12:57:27.945Z,14.10
2022-10-20T12:59:56.155Z,15.50
2022-10-20T13:02:46.557Z,14.10
2022-10-20T13:05:49.523Z,13.60
2022-10-20T13:08:33.704Z,13.30
2022-10-20T13:11:42.770Z,14.70
2022-10-20T13:14:56.453Z,14.67
2022-10-20T13:17:47.021Z,15.23
2022-10-20T13:20:25.432Z,15.40
2022-10-20T13:22:56.099Z,14.03
2022-10-20T13:25:37.342Z,16.23
2022-10-20T13:28:08.649Z,14.67
2022-10-20T13:30:37.748Z,14.47
2022-10-20T13:33:33.673Z,15.77
2022-10-20T13:36:09.357Z,14.33
2022-10-20T13:38:45.385Z,15.40
2022-10-20T13:41:21.128Z,14.60
2022-10-20T13:43:58.226Z,14.47
2022-10-20T13:46:41.646Z,14.37
2022-10-20T13:49:28.353Z,15.10
2022-10-20T13:52:01.768Z,14.43
2022-10-20T13:54:35.788Z,14.93
2022-10-20T13:57:04.692Z,14.50
2022-10-20T13:59:33.472Z,15.47
2022-10-20T14:02:22.766Z,15.77
2022-10-20T14:05:03.408Z,15.03
2022-10-20T14:07:38.248Z,14.80
2022-10-20T14:10:20.611Z,16.53
2022-10-20T14:12:48.987Z,16.10
2022-10-20T14:15:22.530Z,15.43
2022-10-20T14:17:57.157Z,15.63
2022-10-20T14:20:26.242Z,15.83
2022-10-20T14:22:55.611Z,17.47
2022-10-20T14:25:25.548Z,16.27
2022-10-20T14:27:55.067Z,17.27
2022-10-20T14:30:24.028Z,16.43
2022-10-20T14:32:52.675Z,17.67
2022-10-20T14:35:28.442Z,17.15
2022-10-20T14:38:01.073Z,17.60
2022-10-20T14:40:33.197Z,17.63
2022-10-20T14:43:04.747Z,18.20
2022-10-20T14:45:33.321Z,17.90
2022-10-20T14:48:02.618Z,19.40
2022-10-20T14:50:36.009Z,17.77
2022-10-20T14:53:30.619Z,17.27
2022-10-20T14:56:02.423Z,18.60
2022-10-20T14:58:32.998Z,18.77
2022-10-20T15:01:27.850Z,17.58
2022-10-20T15:06:40.700Z,17.98
2022-10-20T15:09:21.076Z,18.00
2022-10-20T15:11:50.674Z,19.57
2022-10-20T15:14:19.017Z,18.53
2022-10-20T15:16:49.252Z,18.90
2022-10-20T15:19:34.681Z,19.27
2022-10-20T15:22:10.864Z,18.87
2022-10-20T15:24:39.900Z,19.17
2022-10-20T15:27:16.187Z,20.03
2022-10-20T15:29:49.959Z,18.53
2022-10-20T15:32:18.303Z,19.67
2022-10-20T15:34:46.622Z,19.70
2022-10-20T15:37:14.782Z,20.03
2022-10-20T15:39:44.417Z,19.33
2022-10-20T15:42:14.106Z,19.67
2022-10-20T15:44:42.337Z,20.47
2022-10-20T15:47:11.268Z,19.97
2022-10-20T15:49:39.535Z,21.50
2022-10-20T15:52:08.622Z,20.10
2022-10-20T15:54:36.811Z,20.47
2022-10-20T15:57:04.986Z,18.70
2022-10-20T15:59:36.540Z,19.37
2022-10-20T16:02:04.725Z,19.17
2022-10-20T16:04:33.114Z,21.90
2022-10-20T16:07:03.092Z,20.90
2022-10-20T16:09:31.915Z,20.07
2022-10-20T16:12:00.146Z,19.27
2022-10-20T16:14:28.349Z,21.90
2022-10-20T16:17:01.195Z,22.13
2022-10-20T16:19:29.508Z,21.60
2022-10-20T16:21:57.784Z,22.80
2022-10-20T16:24:26.090Z,23.13
2022-10-20T16:26:54.297Z,21.53
2022-10-20T16:29:22.790Z,21.90
2022-10-20T16:31:51.053Z,22.50
2022-10-20T16:34:20.549Z,21.90
2022-10-20T16:36:50.810Z,22.13
2022-10-20T16:39:19.705Z,21.95
2022-10-20T16:41:48.103Z,21.47
2022-10-20T16:44:16.541Z,23.13
2022-10-20T16:46:44.911Z,22.80
2022-10-20T16:49:13.217Z,22.50
2022-10-20T16:51:42.783Z,22.80
2022-10-20T16:54:10.966Z,23.30
2022-10-20T16:56:39.159Z,21.70
2022-10-20T16:59:07.298Z,22.70
2022-10-20T17:01:36.354Z,22.80
2022-10-20T17:04:04.906Z,22.67
2022-10-20T17:06:33.095Z,22.83
2022-10-20T17:09:02.615Z,24.50
2022-10-20T17:11:32.984Z,22.03
2022-10-20T17:14:01.649Z,21.43
2022-10-20T17:16:31.506Z,21.52
2022-10-20T17:19:01.709Z,20.67
2022-10-20T17:21:31.459Z,20.90
2022-10-20T17:24:00.145Z,20.90
2022-10-20T17:26:31.680Z,21.40
2022-10-20T17:29:01.845Z,20.67
2022-10-20T17:31:30.901Z,20.43
2022-10-20T17:33:59.900Z,20.10
2022-10-20T17:36:28.960Z,20.37
2022-10-20T17:39:00.477Z,20.73
2022-10-20T17:41:30.248Z,21.73
2022-10-20T17:44:00.685Z,20.60
2022-10-20T17:46:30.890Z,21.00
2022-10-20T17:48:59.103Z,20.70
2022-10-20T17:51:30.423Z,38.33
2022-10-20T17:54:02.163Z,30.03
2022-10-20T17:56:36.560Z,24.60
2022-10-20T17:59:07.501Z,21.88
2022-10-20T18:01:39.053Z,20.37
2022-10-20T18:04:09.036Z,21.97
2022-10-20T18:06:38.229Z,20.90
2022-10-20T18:09:12.078Z,21.57
2022-10-20T18:11:44.300Z,22.40
2022-10-20T18:14:12.466Z,21.37
2022-10-20T18:16:44.205Z,20.63
2022-10-20T18:19:16.570Z,20.33
2022-10-20T18:21:45.259Z,21.70
2022-10-20T18:24:15.612Z,20.03
2022-10-20T18:26:46.144Z,21.47
2022-10-20T18:29:16.148Z,20.80
2022-10-20T18:31:46.598Z,21.70
2022-10-20T18:34:17.195Z,21.53
2022-10-20T18:36:46.326Z,21.60
2022-10-20T18:39:15.917Z,20.87
